Time;durP1;ratioP1;P1;durP2;ratioP2;P2;SDS_P1;SDS_P2;PMS_P1;PMS_P2;Temp;Humidity;BMP_temperature;BMP_pressure;BME280_temperature;BME280_humidity;BME280_pressure;Samples;Min_cycle;Max_cycle;Signal;HPM_P1;HPM_P2
2022/11/26 00:01:13;;;;;;;36.63;9.93;;;;;;;;;;4988481;28;98266;-71
2022/11/26 00:03:40;;;;;;;31.33;10.15;;;;;;;;;;4986867;28;98733;-70
2022/11/26 00:06:26;;;;;;;37.35;9.90;;;;;;;;;;4988206;28;100138;-70
2022/11/26 00:08:52;;;;;;;31.38;9.68;;;;;;;;;;4991814;28;98387;-71
2022/11/26 00:11:18;;;;;;;34.55;9.63;;;;;;;;;;4987073;28;99332;-70
2022/11/26 00:13:45;;;;;;;41.05;10.20;;;;;;;;;;4987703;28;98484;-70
2022/11/26 00:16:12;;;;;;;24.05;9.00;;;;;;;;;;4988892;28;99631;-69
2022/11/26 00:18:38;;;;;;;31.33;10.25;;;;;;;;;;4987265;28;100368;-70
2022/11/26 00:21:08;;;;;;;35.47;10.60;;;;;;;;;;4987587;28;98331;-70
2022/11/26 00:23:36;;;;;;;28.70;10.45;;;;;;;;;;4987358;28;98156;-70
2022/11/26 00:26:02;;;;;;;32.60;9.95;;;;;;;;;;4986517;28;99147;-71
2022/11/26 00:28:30;;;;;;;35.00;10.95;;;;;;;;;;4987943;28;98314;-70
2022/11/26 00:30:58;;;;;;;42.15;10.35;;;;;;;;;;4990882;28;98942;-70
2022/11/26 00:33:25;;;;;;;48.53;12.00;;;;;;;;;;4987974;28;98907;-71
2022/11/26 00:35:57;;;;;;;47.58;10.73;;;;;;;;;;4988197;28;99428;-70
2022/11/26 00:38:24;;;;;;;40.92;11.65;;;;;;;;;;4994153;28;100681;-70
2022/11/26 00:40:50;;;;;;;44.08;11.20;;;;;;;;;;5006677;28;98275;-69
2022/11/26 00:43:16;;;;;;;33.50;10.77;;;;;;;;;;5007147;28;98829;-70
2022/11/26 00:45:44;;;;;;;30.80;10.85;;;;;;;;;;5006145;28;100226;-71
2022/11/26 00:48:10;;;;;;;27.98;10.00;;;;;;;;;;5006853;28;98590;-70
2022/11/26 00:50:38;;;;;;;31.48;11.27;;;;;;;;;;4988841;28;98685;-70
2022/11/26 00:53:10;;;;;;;43.53;12.25;;;;;;;;;;5010417;28;100828;-70
2022/11/26 00:55:38;;;;;;;26.60;10.32;;;;;;;;;;5007616;28;99665;-71
2022/11/26 00:58:05;;;;;;;38.72;11.30;;;;;;;;;;5007562;28;100520;-69
2022/11/26 01:00:33;;;;;;;35.35;10.95;;;;;;;;;;5006047;28;98211;-71
2022/11/26 01:02:59;;;;;;;34.10;11.20;;;;;;;;;;5006411;28;98630;-69
2022/11/26 01:05:29;;;;;;;41.95;11.20;;;;;;;;;;5006226;28;99497;-69
2022/11/26 01:07:58;;;;;;;56.40;11.23;;;;;;;;;;4996140;28;98075;-69
2022/11/26 01:10:25;;;;;;;31.88;11.27;;;;;;;;;;4999559;28;100493;-70
2022/11/26 01:12:52;;;;;;;30.40;11.15;;;;;;;;;;5006759;28;98113;-70
2022/11/26 01:15:19;;;;;;;37.00;11.02;;;;;;;;;;5009939;28;98471;-69
2022/11/26 01:17:46;;;;;;;44.42;12.30;;;;;;;;;;5007043;28;99909;-70
2022/11/26 01:20:23;;;;;;;39.08;11.57;;;;;;;;;;5007168;28;98131;-71
2022/11/26 01:22:51;;;;;;;34.25;11.00;;;;;;;;;;5006743;28;99601;-70
2022/11/26 01:25:18;;;;;;;49.95;12.00;;;;;;;;;;4993590;28;100060;-70
2022/11/26 01:27:44;;;;;;;30.48;11.10;;;;;;;;;;4987058;28;98362;-70
2022/11/26 01:30:24;;;;;;;32.50;12.88;;;;;;;;;;4986061;28;98768;-70
2022/11/26 01:32:50;;;;;;;40.00;12.82;;;;;;;;;;5003741;28;100022;-70
2022/11/26 01:35:17;;;;;;;51.70;13.68;;;;;;;;;;5005775;28;98314;-71
2022/11/26 01:37:44;;;;;;;41.58;12.93;;;;;;;;;;5010006;28;99461;-70
2022/11/26 01:40:22;;;;;;;44.20;13.30;;;;;;;;;;5006503;28;98294;-70
2022/11/26 01:42:50;;;;;;;45.38;13.68;;;;;;;;;;4988723;28;99499;-70
2022/11/26 01:45:18;;;;;;;45.03;12.45;;;;;;;;;;4986425;28;99267;-70
2022/11/26 01:47:47;;;;;;;47.75;13.73;;;;;;;;;;4986037;28;98900;-70
2022/11/26 01:50:29;;;;;;;38.90;13.38;;;;;;;;;;4986322;28;99778;-71
2022/11/26 01:52:58;;;;;;;34.15;12.88;;;;;;;;;;4987114;28;100147;-70
2022/11/26 01:55:27;;;;;;;34.63;12.93;;;;;;;;;;4986228;28;98284;-70
2022/11/26 01:57:54;;;;;;;41.30;14.68;;;;;;;;;;4989655;28;98774;-70
2022/11/26 02:00:20;;;;;;;48.22;14.40;;;;;;;;;;4985767;28;98420;-71
2022/11/26 02:02:47;;;;;;;40.67;13.95;;;;;;;;;;4985851;28;98418;-70
2022/11/26 02:05:18;;;;;;;44.38;13.75;;;;;;;;;;4985837;28;100086;-70
2022/11/26 02:07:45;;;;;;;50.10;13.95;;;;;;;;;;4986621;28;98360;-69
2022/11/26 02:10:12;;;;;;;32.47;13.32;;;;;;;;;;5004584;28;99367;-69
2022/11/26 02:12:40;;;;;;;34.70;13.68;;;;;;;;;;4999167;28;99965;-70
2022/11/26 02:15:07;;;;;;;45.05;15.70;;;;;;;;;;4987908;28;98304;-70
2022/11/26 02:17:37;;;;;;;45.75;14.82;;;;;;;;;;4989335;28;98512;-70
2022/11/26 02:20:12;;;;;;;30.08;12.75;;;;;;;;;;4992477;28;99334;-70
2022/11/26 02:22:39;;;;;;;39.83;14.68;;;;;;;;;;4990023;28;99503;-71
2022/11/26 02:25:06;;;;;;;38.40;15.52;;;;;;;;;;4988454;28;100158;-71
2022/11/26 02:27:47;;;;;;;39.55;14.80;;;;;;;;;;4989894;28;98413;-71
2022/11/26 02:30:15;;;;;;;42.97;15.60;;;;;;;;;;4990277;28;99713;-71
2022/11/26 02:32:47;;;;;;;39.72;14.82;;;;;;;;;;4995682;28;99876;-71
2022/11/26 02:35:32;;;;;;;54.35;16.90;;;;;;;;;;4989810;28;98678;-71
2022/11/26 02:38:04;;;;;;;37.70;14.57;;;;;;;;;;4990082;28;99331;-71
2022/11/26 02:40:30;;;;;;;47.50;15.52;;;;;;;;;;4988175;28;99160;-70
2022/11/26 02:42:56;;;;;;;49.75;16.52;;;;;;;;;;4992316;28;98251;-70
2022/11/26 02:45:26;;;;;;;49.60;16.25;;;;;;;;;;4988938;28;98977;-71
2022/11/26 02:47:54;;;;;;;47.78;15.65;;;;;;;;;;4989287;28;98256;-71
2022/11/26 02:50:26;;;;;;;42.90;16.17;;;;;;;;;;4989314;28;99676;-70
2022/11/26 02:52:54;;;;;;;46.70;19.40;;;;;;;;;;4988844;28;100077;-70
2022/11/26 02:55:24;;;;;;;44.15;16.65;;;;;;;;;;4989582;28;98288;-70
2022/11/26 02:57:50;;;;;;;45.88;18.20;;;;;;;;;;4989690;28;99439;-70
2022/11/26 03:00:17;;;;;;;59.05;17.95;;;;;;;;;;4988657;28;100038;-70
2022/11/26 03:02:46;;;;;;;51.47;18.15;;;;;;;;;;4989223;28;98283;-70
2022/11/26 03:05:14;;;;;;;46.60;16.17;;;;;;;;;;4992751;28;99925;-70
2022/11/26 03:07:41;;;;;;;41.33;17.88;;;;;;;;;;4989014;28;98667;-71
2022/11/26 03:10:07;;;;;;;47.47;18.27;;;;;;;;;;4989772;28;99639;-70
2022/11/26 03:12:34;;;;;;;41.30;16.35;;;;;;;;;;4987845;28;99161;-70
2022/11/26 03:15:00;;;;;;;58.75;17.95;;;;;;;;;;4987655;28;98368;-71
2022/11/26 03:17:27;;;;;;;47.85;17.98;;;;;;;;;;4989049;28;99935;-70
2022/11/26 03:19:53;;;;;;;51.67;18.55;;;;;;;;;;4989096;28;100018;-70
2022/11/26 03:22:20;;;;;;;50.72;19.85;;;;;;;;;;4988807;28;98214;-70
2022/11/26 03:24:46;;;;;;;46.85;17.38;;;;;;;;;;4989488;28;99232;-68
2022/11/26 03:27:12;;;;;;;43.67;17.55;;;;;;;;;;4991495;28;99882;-69
2022/11/26 03:29:39;;;;;;;55.47;19.55;;;;;;;;;;4988068;28;99386;-70
2022/11/26 03:32:06;;;;;;;46.35;17.92;;;;;;;;;;4999787;28;99981;-70
2022/11/26 03:34:33;;;;;;;60.63;18.55;;;;;;;;;;5007547;28;98334;-70
2022/11/26 03:36:59;;;;;;;57.50;19.02;;;;;;;;;;5008889;28;99396;-69
2022/11/26 03:39:26;;;;;;;63.50;18.73;;;;;;;;;;5007048;28;99317;-69
2022/11/26 03:41:52;;;;;;;47.53;17.88;;;;;;;;;;4989367;28;98457;-70
2022/11/26 03:44:18;;;;;;;49.08;19.73;;;;;;;;;;4989039;28;99796;-70
2022/11/26 03:46:45;;;;;;;51.63;18.08;;;;;;;;;;4987821;28;98170;-70
2022/11/26 03:49:13;;;;;;;49.10;18.00;;;;;;;;;;4991195;28;98281;-69
2022/11/26 03:51:39;;;;;;;48.10;17.25;;;;;;;;;;4988308;28;99990;-70
2022/11/26 03:54:06;;;;;;;41.28;16.75;;;;;;;;;;4988759;28;98257;-71
2022/11/26 03:56:32;;;;;;;56.92;17.73;;;;;;;;;;4987936;28;99393;-71
2022/11/26 03:58:58;;;;;;;51.63;17.90;;;;;;;;;;5007093;28;99242;-70
2022/11/26 04:01:25;;;;;;;45.55;18.10;;;;;;;;;;5008560;28;98469;-71
2022/11/26 04:03:51;;;;;;;49.05;17.25;;;;;;;;;;5007227;28;99521;-70
2022/11/26 04:06:18;;;;;;;48.88;17.13;;;;;;;;;;5008580;28;100189;-71
2022/11/26 04:08:44;;;;;;;58.28;16.88;;;;;;;;;;5011539;28;98344;-70
2022/11/26 04:11:11;;;;;;;42.90;16.35;;;;;;;;;;5007592;28;99986;-70
2022/11/26 04:13:37;;;;;;;49.33;16.33;;;;;;;;;;4997757;28;98306;-70
2022/11/26 04:16:03;;;;;;;43.65;15.25;;;;;;;;;;5007263;28;100202;-69
2022/11/26 04:18:30;;;;;;;50.95;18.10;;;;;;;;;;5006787;28;99258;-70
2022/11/26 04:20:56;;;;;;;42.47;16.65;;;;;;;;;;5008668;28;98280;-70
2022/11/26 04:23:23;;;;;;;57.03;16.23;;;;;;;;;;5008349;28;99749;-70
2022/11/26 04:25:49;;;;;;;40.40;15.63;;;;;;;;;;5007410;28;100067;-70
2022/11/26 04:28:15;;;;;;;51.38;16.52;;;;;;;;;;5007101;28;98314;-69
2022/11/26 04:30:42;;;;;;;45.22;16.92;;;;;;;;;;5010527;28;99442;-70
2022/11/26 04:33:09;;;;;;;41.55;17.02;;;;;;;;;;5006798;28;98342;-70
2022/11/26 04:35:36;;;;;;;66.43;17.17;;;;;;;;;;5007620;28;98668;-70
2022/11/26 04:38:02;;;;;;;52.70;17.35;;;;;;;;;;5006070;28;100072;-70
2022/11/26 04:40:29;;;;;;;46.80;16.27;;;;;;;;;;5007603;28;98154;-71
2022/11/26 04:42:55;;;;;;;58.13;17.17;;;;;;;;;;5008116;28;99778;-71
2022/11/26 04:45:21;;;;;;;50.53;17.83;;;;;;;;;;5007085;28;99286;-71
2022/11/26 04:47:48;;;;;;;47.05;17.50;;;;;;;;;;5006119;28;98605;-70
2022/11/26 04:50:14;;;;;;;49.08;16.83;;;;;;;;;;4987517;28;99444;-70
2022/11/26 04:52:40;;;;;;;48.05;15.45;;;;;;;;;;4989141;28;99980;-69
2022/11/26 04:55:07;;;;;;;52.05;16.48;;;;;;;;;;4988024;28;99478;-70
2022/11/26 04:57:33;;;;;;;43.15;18.75;;;;;;;;;;4987330;28;100081;-70
2022/11/26 05:00:00;;;;;;;50.85;19.77;;;;;;;;;;4987030;28;98603;-70
2022/11/26 05:02:26;;;;;;;45.05;19.20;;;;;;;;;;4987443;28;99749;-71
2022/11/26 05:04:52;;;;;;;53.85;19.15;;;;;;;;;;4987946;28;100219;-70
2022/11/26 05:07:19;;;;;;;54.10;20.17;;;;;;;;;;4986936;28;98289;-69
2022/11/26 05:09:45;;;;;;;66.43;19.65;;;;;;;;;;4987735;28;99410;-69
2022/11/26 05:12:11;;;;;;;53.08;18.00;;;;;;;;;;4987288;28;100502;-70
2022/11/26 05:14:38;;;;;;;54.90;19.60;;;;;;;;;;4989726;28;99354;-70
2022/11/26 05:17:05;;;;;;;59.63;20.38;;;;;;;;;;4997175;28;99935;-70
2022/11/26 05:19:31;;;;;;;54.88;18.85;;;;;;;;;;5006964;28;98310;-70
2022/11/26 05:21:57;;;;;;;50.55;16.88;;;;;;;;;;5003915;28;99471;-69
2022/11/26 05:24:24;;;;;;;52.85;19.38;;;;;;;;;;4986839;28;100155;-70
2022/11/26 05:26:50;;;;;;;64.80;18.63;;;;;;;;;;4987602;28;98324;-70
2022/11/26 05:29:22;;;;;;;54.93;20.43;;;;;;;;;;4998430;28;99522;-71
2022/11/26 05:31:48;;;;;;;55.33;19.80;;;;;;;;;;5007074;28;99998;-70
2022/11/26 05:34:15;;;;;;;54.58;18.50;;;;;;;;;;5006941;28;98335;-69
2022/11/26 05:36:41;;;;;;;58.58;19.15;;;;;;;;;;5009984;28;99826;-69
2022/11/26 05:39:08;;;;;;;56.40;19.88;;;;;;;;;;5003105;28;98271;-70
2022/11/26 05:41:34;;;;;;;56.65;21.33;;;;;;;;;;4985440;28;99724;-71
2022/11/26 05:44:00;;;;;;;63.70;21.55;;;;;;;;;;4986439;28;100286;-69
2022/11/26 05:46:27;;;;;;;60.50;21.52;;;;;;;;;;4986744;28;98260;-69
2022/11/26 05:48:53;;;;;;;67.15;20.92;;;;;;;;;;4985961;28;99863;-70
2022/11/26 05:51:19;;;;;;;48.72;20.38;;;;;;;;;;4986782;28;99777;-70
2022/11/26 05:53:46;;;;;;;52.17;20.48;;;;;;;;;;4986853;28;98348;-69
2022/11/26 05:56:12;;;;;;;53.67;21.17;;;;;;;;;;4986460;28;98499;-70
2022/11/26 05:58:40;;;;;;;61.60;20.95;;;;;;;;;;4989893;28;98292;-70
2022/11/26 06:01:08;;;;;;;68.07;22.52;;;;;;;;;;4989616;28;98793;-70
2022/11/26 06:03:35;;;;;;;54.53;23.33;;;;;;;;;;5002926;28;99566;-69
2022/11/26 06:06:01;;;;;;;58.38;21.63;;;;;;;;;;5001803;28;98298;-70
2022/11/26 06:08:28;;;;;;;63.90;23.08;;;;;;;;;;5003734;28;100760;-70
2022/11/26 06:10:55;;;;;;;65.72;23.05;;;;;;;;;;5002262;28;100004;-71
2022/11/26 06:13:21;;;;;;;61.83;22.90;;;;;;;;;;4999468;28;98303;-70
2022/11/26 06:15:47;;;;;;;61.78;23.60;;;;;;;;;;5001372;28;100070;-70
2022/11/26 06:18:14;;;;;;;75.32;24.48;;;;;;;;;;5006809;28;100355;-70
2022/11/26 06:20:40;;;;;;;59.03;24.17;;;;;;;;;;5003642;28;99515;-70
2022/11/26 06:23:06;;;;;;;64.57;24.23;;;;;;;;;;5001895;28;100091;-70
2022/11/26 06:25:33;;;;;;;65.43;23.27;;;;;;;;;;5004983;28;98254;-71
2022/11/26 06:27:59;;;;;;;66.85;24.70;;;;;;;;;;5002503;28;98719;-70
2022/11/26 06:30:26;;;;;;;54.55;23.92;;;;;;;;;;5004198;28;99071;-71
2022/11/26 06:32:52;;;;;;;72.60;25.52;;;;;;;;;;5006048;28;98239;-71
2022/11/26 06:35:19;;;;;;;70.93;23.88;;;;;;;;;;5006610;28;99424;-69
2022/11/26 06:37:45;;;;;;;73.60;24.83;;;;;;;;;;5005542;28;100265;-69
2022/11/26 06:40:14;;;;;;;67.10;26.00;;;;;;;;;;5009835;28;98247;-70
2022/11/26 06:42:41;;;;;;;66.18;22.13;;;;;;;;;;5005854;28;100024;-70
2022/11/26 06:45:07;;;;;;;70.60;26.55;;;;;;;;;;5005710;28;98380;-70
2022/11/26 06:47:34;;;;;;;76.57;26.50;;;;;;;;;;5005301;28;98821;-70
2022/11/26 06:50:00;;;;;;;65.35;25.23;;;;;;;;;;5006079;28;99043;-71
2022/11/26 06:52:33;;;;;;;76.57;27.83;;;;;;;;;;5005380;28;98269;-70
2022/11/26 06:54:59;;;;;;;66.80;25.60;;;;;;;;;;5005509;28;99753;-71
2022/11/26 06:57:25;;;;;;;72.15;27.23;;;;;;;;;;5005508;28;100130;-70
2022/11/26 06:59:51;;;;;;;70.20;27.65;;;;;;;;;;5005119;28;98353;-72
2022/11/26 07:02:18;;;;;;;64.93;25.45;;;;;;;;;;5012198;28;99498;-72
2022/11/26 07:04:44;;;;;;;81.22;25.88;;;;;;;;;;5009100;28;98301;-70
2022/11/26 07:07:11;;;;;;;72.50;28.15;;;;;;;;;;5008618;28;100094;-71
2022/11/26 07:09:38;;;;;;;82.43;27.27;;;;;;;;;;5009038;28;100037;-71
2022/11/26 07:12:04;;;;;;;70.65;25.77;;;;;;;;;;5009726;28;98677;-71
2022/11/26 07:14:30;;;;;;;78.95;27.33;;;;;;;;;;5008352;28;99402;-71
2022/11/26 07:16:57;;;;;;;70.18;26.73;;;;;;;;;;5007706;28;99040;-72
2022/11/26 07:19:23;;;;;;;77.85;26.65;;;;;;;;;;5008208;28;98252;-70
2022/11/26 07:21:49;;;;;;;73.28;27.27;;;;;;;;;;5008592;28;99686;-71
2022/11/26 07:24:16;;;;;;;92.07;29.15;;;;;;;;;;5012478;28;100037;-69
2022/11/26 07:26:42;;;;;;;71.95;26.25;;;;;;;;;;5007354;28;99016;-70
2022/11/26 07:29:09;;;;;;;78.93;25.75;;;;;;;;;;5008574;28;99911;-70
2022/11/26 07:31:35;;;;;;;68.00;25.30;;;;;;;;;;5008178;28;99452;-71
2022/11/26 07:34:02;;;;;;;77.45;28.27;;;;;;;;;;5008513;28;99493;-71
2022/11/26 07:36:29;;;;;;;81.32;29.02;;;;;;;;;;5007829;28;99364;-71
2022/11/26 07:38:59;;;;;;;72.55;28.52;;;;;;;;;;5009162;28;98253;-70
2022/11/26 07:41:26;;;;;;;75.28;29.23;;;;;;;;;;5008012;28;99547;-70
2022/11/26 07:43:53;;;;;;;70.88;27.75;;;;;;;;;;5006902;28;99510;-70
2022/11/26 07:46:23;;;;;;;68.82;25.08;;;;;;;;;;4993977;28;98366;-71
2022/11/26 07:48:49;;;;;;;73.47;28.10;;;;;;;;;;5007682;28;100296;-70
2022/11/26 07:51:27;;;;;;;68.57;27.60;;;;;;;;;;5008866;28;98255;-71
2022/11/26 07:53:54;;;;;;;88.15;29.38;;;;;;;;;;5007903;28;98784;-71
2022/11/26 07:56:20;;;;;;;67.38;26.23;;;;;;;;;;5007931;28;99997;-71
2022/11/26 07:58:46;;;;;;;82.38;30.20;;;;;;;;;;5008513;28;98368;-70
2022/11/26 08:01:14;;;;;;;82.40;28.55;;;;;;;;;;5008928;28;99674;-69
2022/11/26 08:03:42;;;;;;;70.57;28.38;;;;;;;;;;5007369;28;99961;-70
2022/11/26 08:06:09;;;;;;;62.95;28.10;;;;;;;;;;5010971;28;98282;-70
2022/11/26 08:08:35;;;;;;;80.07;28.60;;;;;;;;;;5007148;28;100132;-69
2022/11/26 08:11:02;;;;;;;73.75;26.00;;;;;;;;;;5007565;28;98282;-69
2022/11/26 08:13:28;;;;;;;71.15;27.23;;;;;;;;;;5007290;28;98891;-70
2022/11/26 08:15:54;;;;;;;70.22;25.63;;;;;;;;;;5007626;28;100327;-71
2022/11/26 08:18:21;;;;;;;86.05;26.77;;;;;;;;;;5008450;28;98272;-70
2022/11/26 08:20:57;;;;;;;83.55;26.90;;;;;;;;;;5007295;28;98893;-70
2022/11/26 08:23:24;;;;;;;61.45;24.15;;;;;;;;;;5005805;28;99003;-70
2022/11/26 08:25:50;;;;;;;57.78;24.65;;;;;;;;;;5008087;28;98271;-71
2022/11/26 08:28:37;;;;;;;67.57;23.45;;;;;;;;;;5009997;28;98431;-71
2022/11/26 08:31:04;;;;;;;53.83;22.40;;;;;;;;;;5006535;28;98763;-70
2022/11/26 08:33:31;;;;;;;62.40;20.80;;;;;;;;;;5006883;28;99476;-70
2022/11/26 08:35:57;;;;;;;62.15;20.90;;;;;;;;;;5007908;28;99884;-71
2022/11/26 08:38:33;;;;;;;61.55;21.13;;;;;;;;;;5006944;28;98311;-70
2022/11/26 08:41:04;;;;;;;44.03;19.30;;;;;;;;;;5008170;28;99879;-71
2022/11/26 08:43:30;;;;;;;63.70;20.90;;;;;;;;;;5006840;28;99130;-71
2022/11/26 08:46:17;;;;;;;62.97;19.98;;;;;;;;;;5007473;28;98799;-71
2022/11/26 08:48:44;;;;;;;50.88;19.48;;;;;;;;;;5005397;28;98622;-71
2022/11/26 08:51:11;;;;;;;60.83;19.92;;;;;;;;;;5009031;28;99075;-70
2022/11/26 08:53:37;;;;;;;48.63;18.20;;;;;;;;;;5006590;28;98754;-71
2022/11/26 08:56:05;;;;;;;57.35;18.63;;;;;;;;;;5007406;28;100343;-70
2022/11/26 08:58:32;;;;;;;55.42;19.48;;;;;;;;;;5005229;28;98976;-70
2022/11/26 09:01:05;;;;;;;52.22;17.20;;;;;;;;;;5007719;28;99563;-71
2022/11/26 09:03:32;;;;;;;51.90;18.13;;;;;;;;;;5007159;28;99999;-70
2022/11/26 09:06:02;;;;;;;54.85;19.20;;;;;;;;;;5006861;28;98255;-70
2022/11/26 09:08:28;;;;;;;49.28;17.73;;;;;;;;;;5007335;28;99431;-71
2022/11/26 09:10:55;;;;;;;50.53;17.95;;;;;;;;;;5007143;28;99007;-71
2022/11/26 09:13:22;;;;;;;45.85;17.63;;;;;;;;;;5009884;28;98553;-71
2022/11/26 09:15:49;;;;;;;52.92;17.65;;;;;;;;;;5006764;28;99132;-70
2022/11/26 09:18:15;;;;;;;42.65;16.80;;;;;;;;;;4987123;28;98426;-69
2022/11/26 09:20:42;;;;;;;53.15;17.02;;;;;;;;;;4986442;28;99572;-71
2022/11/26 09:23:08;;;;;;;50.13;16.42;;;;;;;;;;4985847;28;99093;-71
2022/11/26 09:25:37;;;;;;;49.92;16.13;;;;;;;;;;4994452;28;100418;-71
2022/11/26 09:28:03;;;;;;;47.75;15.35;;;;;;;;;;5004904;28;99893;-70
2022/11/26 09:30:30;;;;;;;37.65;13.82;;;;;;;;;;5006588;28;100235;-70
2022/11/26 09:32:57;;;;;;;56.83;13.85;;;;;;;;;;5005597;28;98251;-71
2022/11/26 09:35:24;;;;;;;44.13;14.45;;;;;;;;;;5008131;28;99553;-71
2022/11/26 09:37:50;;;;;;;33.75;11.27;;;;;;;;;;5004449;28;98136;-71
2022/11/26 09:40:17;;;;;;;47.63;14.57;;;;;;;;;;5005834;28;98520;-71
2022/11/26 09:42:44;;;;;;;49.20;13.70;;;;;;;;;;5004749;28;99034;-71
2022/11/26 09:45:10;;;;;;;33.05;12.13;;;;;;;;;;5006430;28;98250;-70
2022/11/26 09:47:39;;;;;;;39.28;13.10;;;;;;;;;;5004374;28;99416;-69
2022/11/26 09:50:14;;;;;;;40.55;11.82;;;;;;;;;;5004132;28;100305;-70
2022/11/26 09:52:51;;;;;;;47.13;12.60;;;;;;;;;;5004875;28;99172;-71
2022/11/26 09:55:22;;;;;;;49.17;14.50;;;;;;;;;;5005488;28;98619;-71
2022/11/26 09:57:58;;;;;;;47.05;12.80;;;;;;;;;;5007947;28;100538;-72
2022/11/26 10:00:26;;;;;;;42.17;12.43;;;;;;;;;;5000969;28;99308;-70
2022/11/26 10:02:53;;;;;;;48.25;12.43;;;;;;;;;;5005657;28;98895;-70
2022/11/26 10:05:21;;;;;;;39.13;12.05;;;;;;;;;;5004796;28;98900;-70
2022/11/26 10:07:54;;;;;;;42.42;13.32;;;;;;;;;;5004694;28;99586;-70
2022/11/26 10:10:25;;;;;;;43.13;12.02;;;;;;;;;;5001081;28;100015;-70
2022/11/26 10:12:51;;;;;;;51.03;13.90;;;;;;;;;;4988896;28;100557;-70
2022/11/26 10:15:52;;;;;;;52.88;13.80;;;;;;;;;;4986664;28;99769;-71
2022/11/26 10:18:21;;;;;;;32.05;12.02;;;;;;;;;;5000598;28;99155;-71
2022/11/26 10:20:50;;;;;;;45.03;13.57;;;;;;;;;;4999629;28;100048;-71
2022/11/26 10:23:26;;;;;;;40.05;13.90;;;;;;;;;;5001140;28;99247;-71
2022/11/26 10:26:15;;;;;;;45.97;13.55;;;;;;;;;;5002017;28;98302;-71
2022/11/26 10:28:43;;;;;;;33.92;11.32;;;;;;;;;;4988914;28;99590;-71
2022/11/26 10:31:36;;;;;;;50.75;12.77;;;;;;;;;;4999354;28;100331;-70
2022/11/26 10:34:03;;;;;;;37.30;11.70;;;;;;;;;;4992165;28;98929;-71
2022/11/26 10:36:34;;;;;;;46.30;12.68;;;;;;;;;;5000829;28;100043;-70
2022/11/26 10:39:00;;;;;;;39.30;12.43;;;;;;;;;;5004292;28;99986;-70
2022/11/26 10:41:29;;;;;;;26.55;9.57;;;;;;;;;;5011755;28;98287;-70
2022/11/26 10:44:16;;;;;;;40.35;12.25;;;;;;;;;;5009033;28;100035;-70
2022/11/26 10:46:42;;;;;;;35.45;11.43;;;;;;;;;;5007716;28;98428;-70
2022/11/26 10:49:34;;;;;;;39.63;12.43;;;;;;;;;;5004389;28;99654;-69
2022/11/26 10:52:06;;;;;;;29.67;10.43;;;;;;;;;;5005011;28;100195;-71
2022/11/26 10:54:34;;;;;;;37.83;11.90;;;;;;;;;;5005121;28;98560;-70
2022/11/26 10:57:03;;;;;;;33.83;11.30;;;;;;;;;;5009349;28;99495;-71
2022/11/26 10:59:35;;;;;;;39.78;10.82;;;;;;;;;;5006339;28;100245;-70
2022/11/26 11:02:04;;;;;;;49.00;12.90;;;;;;;;;;5005605;28;98161;-70
2022/11/26 11:04:32;;;;;;;21.70;11.05;;;;;;;;;;5001417;28;99429;-70
2022/11/26 11:06:59;;;;;;;35.17;11.10;;;;;;;;;;5007145;28;98800;-70
2022/11/26 11:09:27;;;;;;;29.17;12.23;;;;;;;;;;5003232;28;99676;-70
2022/11/26 11:12:12;;;;;;;41.88;11.57;;;;;;;;;;5005927;28;99934;-70
2022/11/26 11:14:39;;;;;;;27.65;10.60;;;;;;;;;;5006709;28;98383;-73
2022/11/26 11:17:38;;;;;;;40.00;11.10;;;;;;;;;;5007466;28;98489;-72
2022/11/26 11:20:13;;;;;;;33.08;10.52;;;;;;;;;;4977944;28;99757;-74
2022/11/26 11:22:40;;;;;;;32.63;10.13;;;;;;;;;;5007942;28;98363;-71
2022/11/26 11:25:20;;;;;;;36.33;11.90;;;;;;;;;;5009309;28;100109;-71
2022/11/26 11:27:47;;;;;;;36.85;10.05;;;;;;;;;;5008526;28;99952;-71
2022/11/26 11:30:31;;;;;;;28.13;9.65;;;;;;;;;;5008056;28;99053;-70
2022/11/26 11:33:08;;;;;;;42.30;9.63;;;;;;;;;;5005979;28;100091;-70
2022/11/26 11:35:34;;;;;;;37.25;9.60;;;;;;;;;;4996273;28;98214;-70
2022/11/26 11:38:01;;;;;;;34.45;9.75;;;;;;;;;;5003111;28;98962;-71
2022/11/26 11:40:29;;;;;;;44.70;10.82;;;;;;;;;;5003488;28;99988;-71
2022/11/26 11:43:02;;;;;;;40.63;9.65;;;;;;;;;;5005783;28;100022;-71
2022/11/26 11:45:34;;;;;;;33.65;10.35;;;;;;;;;;5007323;28;100137;-71
2022/11/26 11:48:08;;;;;;;32.47;10.05;;;;;;;;;;5004082;28;99446;-70
2022/11/26 11:50:38;;;;;;;28.50;10.65;;;;;;;;;;5010992;28;98815;-70
2022/11/26 11:53:11;;;;;;;36.78;10.57;;;;;;;;;;5006670;28;100003;-70
2022/11/26 11:56:06;;;;;;;30.95;9.95;;;;;;;;;;5005513;28;98208;-70
2022/11/26 11:58:37;;;;;;;39.80;12.13;;;;;;;;;;4989245;28;99600;-71
2022/11/26 12:01:08;;;;;;;35.88;9.20;;;;;;;;;;5003740;28;99127;-71
2022/11/26 12:03:37;;;;;;;31.00;10.45;;;;;;;;;;5007725;28;98353;-71
2022/11/26 12:06:25;;;;;;;32.53;10.02;;;;;;;;;;5008347;28;99174;-70
2022/11/26 12:09:06;;;;;;;33.40;10.38;;;;;;;;;;4999594;28;100060;-71
2022/11/26 12:11:35;;;;;;;31.67;10.02;;;;;;;;;;5006215;28;99469;-70
2022/11/26 12:14:16;;;;;;;30.83;9.43;;;;;;;;;;5010603;28;99486;-70
2022/11/26 12:16:46;;;;;;;29.23;9.98;;;;;;;;;;5002542;28;98181;-70
2022/11/26 12:19:17;;;;;;;30.55;9.05;;;;;;;;;;5001798;28;99758;-70
2022/11/26 12:21:47;;;;;;;44.20;10.93;;;;;;;;;;5005958;28;99990;-70
2022/11/26 12:24:28;;;;;;;32.05;9.85;;;;;;;;;;5007487;28;99160;-71
2022/11/26 12:26:59;;;;;;;32.17;9.13;;;;;;;;;;5008040;28;99978;-71
2022/11/26 12:29:46;;;;;;;21.65;8.25;;;;;;;;;;5005982;28;99963;-71
2022/11/26 12:32:30;;;;;;;26.25;9.95;;;;;;;;;;5004813;28;98315;-71
2022/11/26 12:34:58;;;;;;;33.75;9.23;;;;;;;;;;5011227;28;99548;-71
2022/11/26 12:37:32;;;;;;;37.22;9.23;;;;;;;;;;5006953;28;98953;-73
2022/11/26 12:40:17;;;;;;;38.30;9.02;;;;;;;;;;5007220;28;99557;-70
2022/11/26 12:42:59;;;;;;;31.33;10.13;;;;;;;;;;5005041;28;99906;-70
2022/11/26 12:45:37;;;;;;;32.95;9.55;;;;;;;;;;5003538;28;98774;-70
2022/11/26 12:48:12;;;;;;;24.95;8.10;;;;;;;;;;5000188;28;99837;-69
2022/11/26 12:50:41;;;;;;;34.28;8.85;;;;;;;;;;5006048;28;99225;-70
2022/11/26 12:53:27;;;;;;;31.08;9.27;;;;;;;;;;5006447;28;99422;-71
2022/11/26 12:55:57;;;;;;;27.70;8.88;;;;;;;;;;5007857;28;99636;-71
2022/11/26 12:58:43;;;;;;;30.67;8.35;;;;;;;;;;5007758;28;99035;-70
2022/11/26 13:01:10;;;;;;;33.35;9.50;;;;;;;;;;5006007;28;98523;-70
2022/11/26 13:03:37;;;;;;;34.72;8.85;;;;;;;;;;5007273;28;98855;-70
2022/11/26 13:06:14;;;;;;;16.17;5.47;;;;;;;;;;4993535;28;98717;-70
2022/11/26 13:09:01;;;;;;;26.33;7.68;;;;;;;;;;5004601;28;99342;-70
2022/11/26 13:11:46;;;;;;;37.47;7.95;;;;;;;;;;5006517;28;99222;-70
2022/11/26 13:14:19;;;;;;;19.02;6.10;;;;;;;;;;5006920;28;98631;-69
2022/11/26 13:17:05;;;;;;;25.65;7.53;;;;;;;;;;5007337;28;99365;-70
2022/11/26 13:19:43;;;;;;;23.42;7.93;;;;;;;;;;5003136;28;100980;-70
2022/11/26 13:22:28;;;;;;;27.20;7.28;;;;;;;;;;5010379;28;98566;-70
2022/11/26 13:25:14;;;;;;;23.08;6.78;;;;;;;;;;4998957;28;100021;-70
2022/11/26 13:27:59;;;;;;;24.48;7.05;;;;;;;;;;4985687;28;98412;-69
2022/11/26 13:30:32;;;;;;;31.13;6.80;;;;;;;;;;5004199;28;98469;-70
2022/11/26 13:33:11;;;;;;;22.38;6.00;;;;;;;;;;5007051;28;100108;-70
2022/11/26 13:35:55;;;;;;;25.63;6.60;;;;;;;;;;5007065;28;99184;-70
2022/11/26 13:38:34;;;;;;;24.67;6.18;;;;;;;;;;5005016;28;99430;-70
2022/11/26 13:41:14;;;;;;;16.80;5.07;;;;;;;;;;5004887;28;99258;-70
2022/11/26 13:43:52;;;;;;;25.10;5.60;;;;;;;;;;4995175;28;98952;-70
2022/11/26 13:46:18;;;;;;;23.05;5.85;;;;;;;;;;5008229;28;99348;-70
2022/11/26 13:48:55;;;;;;;24.08;6.43;;;;;;;;;;5002203;28;100120;-70
2022/11/26 13:51:22;;;;;;;24.88;5.68;;;;;;;;;;4986549;28;99917;-71
2022/11/26 13:53:54;;;;;;;26.52;6.38;;;;;;;;;;5002866;28;99160;-70
2022/11/26 13:56:24;;;;;;;26.40;6.07;;;;;;;;;;5007240;28;98831;-71
2022/11/26 13:58:54;;;;;;;25.10;5.45;;;;;;;;;;5006172;28;98725;-71
2022/11/26 14:01:35;;;;;;;26.10;6.43;;;;;;;;;;4994480;28;100131;-70
2022/11/26 14:04:06;;;;;;;18.15;4.88;;;;;;;;;;4986597;28;98413;-70
2022/11/26 14:06:34;;;;;;;26.65;5.07;;;;;;;;;;4985568;28;98968;-71
2022/11/26 14:09:01;;;;;;;28.70;5.35;;;;;;;;;;4997872;28;99146;-72
2022/11/26 14:11:43;;;;;;;24.08;5.90;;;;;;;;;;4991929;28;98781;-70
2022/11/26 14:14:31;;;;;;;25.90;5.40;;;;;;;;;;5012517;28;99031;-70
2022/11/26 14:17:00;;;;;;;16.75;5.35;;;;;;;;;;5013492;28;99112;-70
2022/11/26 14:19:38;;;;;;;27.25;6.25;;;;;;;;;;4996419;28;100590;-71
2022/11/26 14:22:05;;;;;;;19.83;5.55;;;;;;;;;;4999844;28;100076;-69
2022/11/26 14:24:47;;;;;;;40.17;9.38;;;;;;;;;;5011809;28;98230;-70
2022/11/26 14:27:14;;;;;;;60.45;16.83;;;;;;;;;;5012380;28;98696;-70
2022/11/26 14:29:42;;;;;;;32.72;10.95;;;;;;;;;;5012101;28;99937;-70
2022/11/26 14:32:19;;;;;;;41.47;9.18;;;;;;;;;;5013304;28;98278;-71